Billings, MT

8:49 PM MDT on September 14, 2014 (GMT -0600)
South Big Horn County | Change Station
CLOSE
Current Station
Airport
Location: Greybull,
Elevation: 3934 ft
Nearby Weather Stations

Elev 3934 ft 44.52 °N, 108.08 °W | Updated 56 minutes ago

Clear
Clear
63 °F
Feels Like 63 °F
N
13
Wind Variable Wind from NNW

Today
High -- | Low -- °F
--% Chance of Precip.
Yesterday
High -- | Low -- °F
Precip. -- in
6:51 AM 7:26 PM
Waning Gibbous, 60% visible
Pressure 30.08 in
Visibility 10.0 miles
Clouds Clear
Dew Point 34 °F
Humidity 34%
Rainfall 0.00 in
Snow Depth 1 in , 0 in , 0 in
UV 0 out of 12
Pollen 5.70 out of 12
Air Quality Not available.
Flu Activity Not available.
METAR KGEY 150153Z AUTO 33011KT 10SM CLR 17/01 A3009 RMK AO2 SLP185 T01720011

More Conditions Fewer Conditions

Pressure 30.08 in
Visibility 10.0 miles
Clouds Clear
Dew Point 34 °F
Humidity 34%
Rainfall 0.00 in
Snow Depth 1 in , 0 in , 0 in
UV 0 out of 12
Pollen 5.70 out of 12
Air Quality Not available.
Flu Activity Not available.
METAR KGEY 150153Z AUTO 33011KT 10SM CLR 17/01 A3009 RMK AO2 SLP185 T01720011

More Conditions Fewer Conditions

10-Day Weather Forecast

Almanac

Astronomy

Sep. 14, 2014 Rise Set
Actual Time 6:51 AM MDT 7:26 PM MDT
Civil Twilight 6:21 AM MDT 7:56 PM MDT
Nautical Twilight 5:45 AM MDT 8:32 PM MDT
Astronomical Twilight 5:08 AM MDT 9:09 PM MDT
Moon 11:04 PM MDT (9/14) 1:17 PM MDT (9/14)
Length of Visible Light 13h 35m
Length of Day
12h 35m
Tomorrow will be 3m 11s shorter.
Waning Gibbous, 60% of the Moon is Illuminated
Today
Waning Gibbous
Sep 15
Last Quarter
Sep 24
New
Oct 1
First Quarter
Oct 8
Full

Today's Extremes

State Highs State Lows

Community

WunderPhotos

Upload Photos

1,753,385 photos uploaded!

Nearby

Snow Depth

Station Depth Elevation
Brackett Creek 1 in 7320 ft
Daisy Peak 0 in 7600 ft
Short Creek 0 in 7000 ft
Badger Pass 1 in 6900 ft
Banfield Mountain 0 in 5600 ft

Earthquake Activity

City Distance Mag. Time & Date
No recent earthquake activity has been reported nearby.
Minimum magnitude displayed is 2.5.

Coastal Water Temperatures

Place Temperature
No Stations Reporting

Nearby Weather Stations